createdAt,value
2022-08-19T00:02:10.557Z,17.98
2022-08-19T00:04:37.953Z,17.99
2022-08-19T00:07:06.751Z,18.56
2022-08-19T00:09:35.052Z,18.94
2022-08-19T00:12:03.594Z,18.93
2022-08-19T00:14:33.872Z,18.89
2022-08-19T00:17:04.067Z,17.97
2022-08-19T00:19:31.306Z,18.81
2022-08-19T00:21:58.202Z,18.83
2022-08-19T00:24:25.830Z,17.17
2022-08-19T00:26:56.126Z,17.33
2022-08-19T00:29:24.120Z,18.72
2022-08-19T00:31:54.509Z,15.75
2022-08-19T00:34:22.810Z,17.12
2022-08-19T00:36:50.123Z,18.76
2022-08-19T00:39:18.243Z,18.79
2022-08-19T00:41:48.518Z,15.07
2022-08-19T00:44:26.909Z,15.63
2022-08-19T00:46:58.745Z,18.69
2022-08-19T00:49:31.126Z,18.65
2022-08-19T00:52:03.146Z,18.64
2022-08-19T00:54:32.468Z,14.67
2022-08-19T00:57:00.816Z,18.60
2022-08-19T00:59:56.104Z,18.61
2022-08-19T01:02:18.051Z,16.17
2022-08-19T01:04:44.931Z,17.40
2022-08-19T01:07:15.142Z,18.53
2022-08-19T01:09:45.017Z,17.59
2022-08-19T01:12:12.882Z,18.04
2022-08-19T01:14:41.065Z,18.39
2022-08-19T01:17:11.903Z,17.92
2022-08-19T01:19:43.700Z,17.73
2022-08-19T01:22:34.190Z,17.35
2022-08-19T01:25:02.179Z,17.84
2022-08-19T01:27:45.906Z,18.24
2022-08-19T01:30:16.515Z,18.25
2022-08-19T01:32:44.318Z,18.24
2022-08-19T01:35:13.653Z,15.33
2022-08-19T01:37:56.198Z,16.61
2022-08-19T01:40:26.148Z,18.19
2022-08-19T01:42:54.678Z,18.20
2022-08-19T01:45:24.155Z,18.19
2022-08-19T01:48:01.756Z,17.54
2022-08-19T01:50:31.818Z,15.45
2022-08-19T01:53:06.201Z,18.00
2022-08-19T01:55:40.609Z,16.84
2022-08-19T01:58:14.762Z,18.06
2022-08-19T02:00:42.358Z,18.06
2022-08-19T02:03:10.375Z,14.79
2022-08-19T02:05:37.765Z,17.98
2022-08-19T02:08:05.507Z,12.98
2022-08-19T02:10:33.145Z,17.70
2022-08-19T02:13:00.997Z,17.28
2022-08-19T02:15:28.889Z,17.41
2022-08-19T02:17:55.803Z,17.13
2022-08-19T02:20:23.490Z,13.87
2022-08-19T02:22:53.648Z,15.84
2022-08-19T02:25:23.582Z,17.86
2022-08-19T02:27:51.697Z,16.73
2022-08-19T02:30:19.984Z,17.90
2022-08-19T02:32:48.066Z,17.89
2022-08-19T02:35:15.246Z,17.25
2022-08-19T02:38:01.794Z,17.42
2022-08-19T02:40:35.603Z,16.62
2022-08-19T02:43:10.000Z,17.48
2022-08-19T02:45:41.460Z,16.69
2022-08-19T02:48:12.739Z,17.14
2022-08-19T02:50:56.457Z,15.63
2022-08-19T02:53:26.136Z,17.46
2022-08-19T02:55:53.445Z,17.42
2022-08-19T02:58:22.271Z,16.65
2022-08-19T03:00:52.444Z,17.16
2022-08-19T03:03:20.459Z,17.83
2022-08-19T03:05:56.315Z,15.73
2022-08-19T03:08:26.550Z,17.84
2022-08-19T03:10:54.284Z,17.84
2022-08-19T03:13:22.494Z,16.46
2022-08-19T03:15:49.596Z,15.71
2022-08-19T03:18:18.121Z,16.51
2022-08-19T03:20:48.108Z,17.85
2022-08-19T03:23:17.112Z,15.97
2022-08-19T03:25:47.598Z,17.13
2022-08-19T03:28:31.419Z,17.53
2022-08-19T03:31:05.635Z,17.72
2022-08-19T03:33:52.835Z,17.72
2022-08-19T03:36:25.690Z,16.60
2022-08-19T03:38:59.623Z,16.14
2022-08-19T03:41:34.382Z,17.23
2022-08-19T03:44:16.670Z,17.69
2022-08-19T03:46:46.759Z,17.30
2022-08-19T03:49:14.167Z,17.20
2022-08-19T03:51:42.790Z,17.16
2022-08-19T03:54:12.074Z,17.56
2022-08-19T03:56:40.527Z,17.72
2022-08-19T03:59:14.451Z,17.68
2022-08-19T04:01:43.163Z,15.99
2022-08-19T04:04:13.229Z,15.47
2022-08-19T04:06:40.637Z,17.33
2022-08-19T04:09:09.894Z,17.13
2022-08-19T04:11:44.271Z,14.79
2022-08-19T04:14:21.855Z,17.27
2022-08-19T04:16:50.114Z,15.72
2022-08-19T04:19:18.357Z,16.96
2022-08-19T04:21:48.192Z,17.77
2022-08-19T04:24:16.150Z,14.63
2022-08-19T04:26:43.658Z,17.20
2022-08-19T04:29:17.131Z,14.82
2022-08-19T04:31:46.147Z,16.74
2022-08-19T04:34:15.516Z,17.08
2022-08-19T04:36:45.599Z,17.08
2022-08-19T04:39:17.487Z,14.66
2022-08-19T04:42:05.033Z,14.93
2022-08-19T04:44:33.502Z,16.62
2022-08-19T04:47:10.955Z,15.84
2022-08-19T04:49:42.377Z,16.57
2022-08-19T04:52:10.530Z,13.90
2022-08-19T04:54:39.361Z,16.76
2022-08-19T04:57:11.310Z,17.66
2022-08-19T04:59:41.056Z,17.48
2022-08-19T05:02:09.895Z,18.46
2022-08-19T05:04:40.414Z,18.58
2022-08-19T05:07:09.228Z,18.69
2022-08-19T05:09:57.798Z,17.45
2022-08-19T05:12:26.755Z,17.98
2022-08-19T05:14:57.910Z,18.93
2022-08-19T05:17:28.960Z,15.60
2022-08-19T05:20:17.195Z,19.06
2022-08-19T05:22:47.235Z,18.69
2022-08-19T05:25:19.572Z,19.36
2022-08-19T05:27:47.136Z,19.45
2022-08-19T05:30:15.822Z,19.54
2022-08-19T05:32:44.184Z,19.61
2022-08-19T05:35:12.951Z,18.70
2022-08-19T05:37:44.835Z,19.69
2022-08-19T05:40:12.174Z,18.57
2022-08-19T05:42:39.449Z,16.98
2022-08-19T05:45:08.164Z,19.88
2022-08-19T05:47:36.171Z,19.77
2022-08-19T05:50:10.983Z,20.09
2022-08-19T05:52:39.215Z,18.25
2022-08-19T05:55:12.001Z,18.84
2022-08-19T05:57:39.377Z,20.61
2022-08-19T06:00:11.248Z,20.39
2022-08-19T06:02:39.034Z,20.63
2022-08-19T06:05:10.414Z,21.81
2022-08-19T06:07:39.235Z,22.43
2022-08-19T06:10:08.447Z,22.68
2022-08-19T06:12:36.618Z,23.20
2022-08-19T06:15:07.518Z,24.08
2022-08-19T06:17:36.355Z,24.31
2022-08-19T06:20:09.820Z,25.19
2022-08-19T06:22:41.740Z,25.29
2022-08-19T06:25:13.257Z,23.89
2022-08-19T06:30:31.363Z,25.45
2022-08-19T06:32:58.238Z,24.17
2022-08-19T06:35:25.496Z,27.28
2022-08-19T06:37:53.585Z,27.34
2022-08-19T06:40:21.621Z,26.56
2022-08-19T06:42:54.548Z,28.10
2022-08-19T06:45:24.946Z,27.94
2022-08-19T06:48:02.111Z,26.38
2022-08-19T06:50:31.097Z,27.84
2022-08-19T06:52:58.215Z,27.06
2022-08-19T06:55:33.455Z,26.91
2022-08-19T06:58:04.776Z,30.21
2022-08-19T07:03:03.046Z,30.61
2022-08-19T07:05:33.293Z,29.68
2022-08-19T07:08:04.809Z,25.81
2022-08-19T07:10:33.920Z,27.55
2022-08-19T07:13:01.274Z,29.36
2022-08-19T07:15:28.326Z,29.18
2022-08-19T07:17:58.395Z,29.37
2022-08-19T07:20:28.508Z,29.77
2022-08-19T07:22:56.094Z,28.76
2022-08-19T07:25:32.424Z,29.46
2022-08-19T07:28:01.420Z,29.24
2022-08-19T07:30:28.793Z,28.43
2022-08-19T07:32:58.396Z,27.01
2022-08-19T07:35:26.103Z,27.99
2022-08-19T07:37:56.224Z,28.41
2022-08-19T07:40:23.467Z,26.60
2022-08-19T07:42:50.444Z,28.22
2022-08-19T07:45:17.505Z,25.98
2022-08-19T07:47:50.423Z,25.64
2022-08-19T07:50:20.443Z,27.49
2022-08-19T07:52:49.136Z,26.69
2022-08-19T07:55:40.674Z,26.07
2022-08-19T07:58:09.868Z,24.48
2022-08-19T08:00:37.024Z,26.83
2022-08-19T08:03:05.711Z,26.11
2022-08-19T08:05:51.334Z,26.93
2022-08-19T08:08:36.826Z,25.30
2022-08-19T08:11:07.682Z,23.69
2022-08-19T08:13:39.078Z,26.79
2022-08-19T08:16:07.588Z,25.64
2022-08-19T08:18:43.147Z,27.32
2022-08-19T08:21:10.276Z,28.40
2022-08-19T08:23:37.198Z,28.43
2022-08-19T08:26:06.880Z,29.39
2022-08-19T08:28:40.356Z,28.00
2022-08-19T08:31:09.554Z,28.40
2022-08-19T08:33:37.096Z,30.75
2022-08-19T08:36:06.456Z,31.22
2022-08-19T08:38:38.927Z,31.32
2022-08-19T08:41:29.690Z,31.15
2022-08-19T08:43:58.518Z,30.70
2022-08-19T08:46:36.239Z,30.58
2022-08-19T08:49:09.748Z,30.58
2022-08-19T08:52:05.448Z,31.33
2022-08-19T08:54:54.728Z,30.93
2022-08-19T08:57:37.000Z,29.43
2022-08-19T09:00:20.931Z,31.73
2022-08-19T09:02:50.434Z,32.62
2022-08-19T09:05:22.233Z,33.22
2022-08-19T09:08:05.150Z,33.49
2022-08-19T09:10:44.833Z,33.52
2022-08-19T09:13:54.890Z,34.36
2022-08-19T09:16:28.025Z,31.54
2022-08-19T09:18:59.986Z,32.08
2022-08-19T09:21:33.170Z,34.18
2022-08-19T09:24:05.480Z,35.05
2022-08-19T09:26:47.208Z,32.91
2022-08-19T09:29:18.411Z,33.80
2022-08-19T09:31:48.976Z,31.92
2022-08-19T09:34:20.673Z,33.34
2022-08-19T09:36:56.862Z,33.42
2022-08-19T09:39:24.052Z,29.16
2022-08-19T09:41:51.327Z,30.68
2022-08-19T09:44:21.268Z,33.47
2022-08-19T09:46:49.346Z,32.96
2022-08-19T09:49:22.788Z,32.04
2022-08-19T09:51:56.305Z,33.87
2022-08-19T09:54:25.352Z,31.92
2022-08-19T09:56:59.882Z,33.52
2022-08-19T09:59:28.140Z,31.34
2022-08-19T10:01:55.506Z,30.03
2022-08-19T10:04:49.798Z,31.07
2022-08-19T10:07:17.599Z,31.17
2022-08-19T10:09:45.085Z,32.16
2022-08-19T10:12:17.816Z,30.75
2022-08-19T10:14:47.491Z,31.18
2022-08-19T10:17:17.655Z,30.15
2022-08-19T10:19:55.286Z,29.89
2022-08-19T10:22:25.499Z,29.58
2022-08-19T10:24:54.382Z,31.83
2022-08-19T10:27:22.367Z,29.53
2022-08-19T10:29:49.501Z,30.88
2022-08-19T10:32:17.397Z,29.28
2022-08-19T10:34:48.205Z,30.77
2022-08-19T10:37:23.638Z,30.16
2022-08-19T10:39:56.365Z,30.45
2022-08-19T10:42:23.508Z,30.73
2022-08-19T10:44:51.832Z,30.25
2022-08-19T10:47:25.488Z,30.16
2022-08-19T10:50:14.352Z,27.95
2022-08-19T10:52:50.613Z,31.07
2022-08-19T10:55:40.375Z,30.91
2022-08-19T10:58:13.431Z,30.71
2022-08-19T11:00:41.700Z,30.28
2022-08-19T11:03:09.507Z,29.26
2022-08-19T11:05:39.844Z,29.59
2022-08-19T11:08:23.303Z,28.97
2022-08-19T11:11:01.687Z,29.28
2022-08-19T11:13:30.449Z,27.55
2022-08-19T11:16:09.654Z,29.65
2022-08-19T11:18:40.328Z,27.79
2022-08-19T11:21:21.100Z,27.97
2022-08-19T11:23:50.368Z,28.83
2022-08-19T11:26:18.722Z,29.13
2022-08-19T11:28:46.218Z,29.12
2022-08-19T11:31:15.871Z,27.19
2022-08-19T11:33:47.648Z,29.07
2022-08-19T11:36:16.374Z,26.83
2022-08-19T11:38:45.037Z,29.08
2022-08-19T11:41:12.605Z,28.94
2022-08-19T11:43:40.814Z,29.13
2022-08-19T11:46:16.004Z,27.81
2022-08-19T11:48:44.387Z,29.13
2022-08-19T11:51:15.595Z,26.40
2022-08-19T11:53:42.993Z,26.39
2022-08-19T11:56:10.877Z,27.49
2022-08-19T11:58:38.743Z,27.80
2022-08-19T12:01:10.284Z,29.65
2022-08-19T12:03:39.423Z,29.60
2022-08-19T12:06:08.523Z,28.81
2022-08-19T12:08:37.061Z,27.08
2022-08-19T12:11:05.113Z,28.63
2022-08-19T12:13:33.338Z,28.27
2022-08-19T12:16:00.939Z,29.28
2022-08-19T12:18:28.356Z,28.88
2022-08-19T12:20:55.753Z,28.34
2022-08-19T12:23:24.107Z,28.61
2022-08-19T12:25:54.178Z,24.71
2022-08-19T12:28:22.658Z,28.58
2022-08-19T12:30:52.211Z,27.00
2022-08-19T12:33:25.137Z,26.22
2022-08-19T12:35:52.987Z,27.27
2022-08-19T12:38:21.051Z,29.21
2022-08-19T12:40:49.805Z,27.52
2022-08-19T12:43:17.184Z,26.08
2022-08-19T12:45:46.098Z,25.17
2022-08-19T12:48:33.544Z,28.52
2022-08-19T12:51:08.231Z,29.24
2022-08-19T12:53:39.168Z,29.98
2022-08-19T12:56:11.532Z,29.80
2022-08-19T12:58:49.104Z,29.81
2022-08-19T13:01:22.561Z,29.29
2022-08-19T13:03:54.814Z,28.01
2022-08-19T13:06:22.462Z,26.85
2022-08-19T13:08:49.721Z,26.52
2022-08-19T13:11:21.264Z,26.46
2022-08-19T13:13:51.297Z,26.65
2022-08-19T13:16:21.255Z,28.76
2022-08-19T13:18:49.097Z,25.71
2022-08-19T13:21:16.532Z,25.98
2022-08-19T13:23:43.764Z,28.80
2022-08-19T13:26:12.452Z,28.96
2022-08-19T13:28:59.204Z,25.78
2022-08-19T13:31:47.709Z,27.64
2022-08-19T13:34:16.611Z,28.42
2022-08-19T13:36:44.069Z,29.21
2022-08-19T13:39:13.749Z,28.21
2022-08-19T13:41:48.914Z,29.08
2022-08-19T13:44:19.258Z,25.36
2022-08-19T13:46:50.457Z,28.92
2022-08-19T13:49:21.622Z,28.41
2022-08-19T13:51:49.341Z,25.80
2022-08-19T13:54:17.649Z,28.64
2022-08-19T13:56:47.154Z,26.21
2022-08-19T13:59:14.448Z,26.10
2022-08-19T14:01:43.910Z,29.17
2022-08-19T14:04:11.204Z,28.06
2022-08-19T14:06:38.355Z,29.24
2022-08-19T14:09:06.791Z,26.05
2022-08-19T14:11:33.756Z,29.07
2022-08-19T14:14:00.846Z,29.37
2022-08-19T14:16:29.259Z,29.30
2022-08-19T14:18:57.419Z,28.12
2022-08-19T14:21:26.400Z,29.14
2022-08-19T14:23:55.414Z,29.19
2022-08-19T14:26:24.160Z,29.06
2022-08-19T14:28:53.939Z,28.74
2022-08-19T14:31:29.004Z,27.06
2022-08-19T14:33:57.871Z,28.36
2022-08-19T14:36:25.140Z,29.27
2022-08-19T14:38:52.437Z,27.93
2022-08-19T14:41:22.923Z,27.77
2022-08-19T14:43:52.955Z,26.02
2022-08-19T14:46:22.751Z,24.18
2022-08-19T14:48:51.788Z,28.97
2022-08-19T14:51:21.473Z,29.05
2022-08-19T14:53:53.342Z,29.10
2022-08-19T14:56:24.855Z,24.99
2022-08-19T14:58:53.231Z,26.19
2022-08-19T15:01:22.990Z,24.37
2022-08-19T15:03:57.317Z,29.36
2022-08-19T15:06:26.539Z,27.55
2022-08-19T15:08:55.255Z,29.33
2022-08-19T15:11:26.118Z,28.53
2022-08-19T15:13:54.114Z,24.57
2022-08-19T15:16:22.388Z,27.05
2022-08-19T15:18:55.534Z,29.34
2022-08-19T15:21:27.374Z,28.24
2022-08-19T15:23:57.343Z,23.91
2022-08-19T15:26:26.342Z,23.78
2022-08-19T15:28:53.721Z,29.21
2022-08-19T15:31:28.448Z,27.17
2022-08-19T15:33:59.840Z,28.98
2022-08-19T15:36:28.167Z,26.99
2022-08-19T15:38:58.238Z,26.20
2022-08-19T15:41:34.250Z,23.53
2022-08-19T15:44:10.353Z,29.41
2022-08-19T15:46:40.313Z,28.14
2022-08-19T15:49:08.404Z,29.56
2022-08-19T15:51:37.036Z,26.36
2022-08-19T15:54:07.056Z,24.30
2022-08-19T15:56:57.941Z,25.25
2022-08-19T15:59:47.052Z,25.90
2022-08-19T16:02:38.223Z,29.11
2022-08-19T16:05:28.838Z,24.06
2022-08-19T16:07:57.729Z,24.47
2022-08-19T16:10:30.044Z,23.57
2022-08-19T16:12:59.691Z,28.42
2022-08-19T16:15:32.811Z,28.40
2022-08-19T16:18:05.261Z,22.79
2022-08-19T16:20:37.011Z,26.40
2022-08-19T16:23:05.941Z,26.79
2022-08-19T16:25:37.535Z,23.32
2022-08-19T16:28:07.953Z,27.32
2022-08-19T16:30:39.420Z,22.43
2022-08-19T16:33:12.737Z,24.97
2022-08-19T16:35:58.442Z,24.25
2022-08-19T16:38:30.784Z,27.24
2022-08-19T16:41:02.000Z,27.09
2022-08-19T16:43:35.103Z,27.00
2022-08-19T16:46:03.568Z,26.97
2022-08-19T16:48:31.377Z,24.83
2022-08-19T16:51:02.999Z,26.93
2022-08-19T16:53:33.042Z,26.95
2022-08-19T16:56:01.849Z,23.86
2022-08-19T16:58:34.473Z,26.91
2022-08-19T17:01:06.248Z,21.49
2022-08-19T17:03:36.496Z,23.30
2022-08-19T17:06:17.837Z,21.44
2022-08-19T17:08:50.187Z,26.58
2022-08-19T17:11:19.464Z,26.55
2022-08-19T17:13:48.549Z,24.92
2022-08-19T17:16:24.961Z,26.43
2022-08-19T17:18:54.161Z,26.29
2022-08-19T17:21:28.546Z,23.40
2022-08-19T17:23:57.163Z,22.24
2022-08-19T17:26:25.589Z,25.23
2022-08-19T17:28:55.260Z,25.14
2022-08-19T17:31:25.506Z,26.05
2022-08-19T17:33:52.980Z,22.55
2022-08-19T17:36:25.215Z,25.95
2022-08-19T17:38:55.576Z,25.70
2022-08-19T17:41:25.045Z,24.47
2022-08-19T17:43:53.134Z,24.17
2022-08-19T17:46:20.849Z,23.81
2022-08-19T17:48:52.771Z,21.34
2022-08-19T17:51:27.512Z,25.31
2022-08-19T17:53:55.216Z,24.23
2022-08-19T17:56:23.659Z,25.09
2022-08-19T17:58:59.746Z,24.67
2022-08-19T18:01:35.504Z,25.56
2022-08-19T18:04:19.094Z,25.43
2022-08-19T18:06:53.261Z,24.63
2022-08-19T18:09:25.181Z,23.27
2022-08-19T18:11:55.670Z,19.12
2022-08-19T18:14:33.310Z,23.00
2022-08-19T18:17:14.307Z,19.84
2022-08-19T18:19:43.969Z,21.51
2022-08-19T18:22:37.049Z,24.59
2022-08-19T18:25:12.089Z,22.86
2022-08-19T18:27:39.677Z,24.66
2022-08-19T18:30:08.750Z,24.41
2022-08-19T18:32:45.680Z,20.12
2022-08-19T18:35:16.934Z,21.66
2022-08-19T18:37:49.775Z,23.69
2022-08-19T18:40:39.758Z,20.72
2022-08-19T18:43:26.031Z,21.17
2022-08-19T18:46:39.520Z,23.96
2022-08-19T18:49:11.225Z,22.80
2022-08-19T18:51:38.435Z,21.97
2022-08-19T18:54:05.529Z,23.79
2022-08-19T18:56:33.488Z,22.10
2022-08-19T18:59:01.069Z,23.45
2022-08-19T19:01:37.042Z,22.89
2022-08-19T19:04:10.657Z,23.15
2022-08-19T19:06:40.736Z,23.11
2022-08-19T19:09:13.819Z,23.43
2022-08-19T19:11:45.538Z,23.36
2022-08-19T19:14:32.729Z,22.74
2022-08-19T19:17:07.280Z,21.88
2022-08-19T19:19:34.942Z,22.45
2022-08-19T19:22:03.000Z,21.72
2022-08-19T19:24:33.479Z,22.99
2022-08-19T19:27:06.954Z,23.14
2022-08-19T19:29:37.543Z,23.06
2022-08-19T19:32:07.292Z,20.18
2022-08-19T19:34:35.150Z,22.96
2022-08-19T19:37:02.577Z,22.97
2022-08-19T19:39:44.837Z,19.95
2022-08-19T19:42:20.537Z,22.88
2022-08-19T19:44:50.483Z,21.93
2022-08-19T19:47:19.248Z,22.58
2022-08-19T19:50:13.360Z,22.48
2022-08-19T19:52:39.995Z,21.81
2022-08-19T19:55:09.506Z,22.23
2022-08-19T19:57:40.064Z,22.58
2022-08-19T20:00:08.899Z,22.32
2022-08-19T20:02:36.024Z,22.55
2022-08-19T20:05:03.677Z,22.21
2022-08-19T20:08:06.088Z,22.43
2022-08-19T20:10:33.463Z,22.63
2022-08-19T20:13:05.195Z,22.56
2022-08-19T20:15:32.594Z,21.73
2022-08-19T20:18:01.026Z,21.86
2022-08-19T20:20:28.276Z,21.01
2022-08-19T20:22:55.106Z,22.29
2022-08-19T20:25:22.360Z,21.81
2022-08-19T20:27:49.422Z,22.02
2022-08-19T20:30:19.419Z,21.44
2022-08-19T20:33:14.692Z,22.13
2022-08-19T20:35:43.121Z,21.00
2022-08-19T20:38:13.687Z,21.90
2022-08-19T20:40:41.209Z,21.97
2022-08-19T20:43:12.885Z,21.56
2022-08-19T20:45:41.009Z,21.26
2022-08-19T20:48:12.612Z,21.94
2022-08-19T20:50:40.958Z,21.10
2022-08-19T20:53:14.290Z,20.51
2022-08-19T20:55:44.687Z,19.74
2022-08-19T20:58:13.713Z,21.78
2022-08-19T21:00:42.292Z,21.71
2022-08-19T21:03:09.689Z,17.53
2022-08-19T21:05:37.666Z,21.52
2022-08-19T21:08:05.341Z,18.80
2022-08-19T21:10:32.920Z,19.56
2022-08-19T21:13:00.511Z,19.48
2022-08-19T21:15:28.269Z,18.41
2022-08-19T21:17:56.801Z,20.58
2022-08-19T21:20:25.079Z,17.77
2022-08-19T21:22:52.421Z,21.16
2022-08-19T21:25:19.652Z,20.97
2022-08-19T21:27:48.478Z,21.47
2022-08-19T21:30:15.849Z,21.47
2022-08-19T21:32:43.093Z,20.92
2022-08-19T21:35:10.874Z,21.16
2022-08-19T21:37:38.862Z,21.49
2022-08-19T21:40:07.367Z,19.93
2022-08-19T21:42:35.191Z,21.49
2022-08-19T21:45:03.333Z,19.49
2022-08-19T21:47:31.003Z,16.35
2022-08-19T21:49:58.906Z,17.65
2022-08-19T21:52:28.504Z,18.92
2022-08-19T21:54:56.300Z,18.02
2022-08-19T21:57:24.734Z,19.86
2022-08-19T21:59:53.995Z,16.86
2022-08-19T22:02:24.303Z,21.51
2022-08-19T22:04:52.999Z,18.09
2022-08-19T22:07:22.096Z,20.41
2022-08-19T22:16:25.789Z,21.55
2022-08-19T22:19:13.855Z,21.59
2022-08-19T22:22:01.444Z,21.60
2022-08-19T22:24:53.380Z,20.93
2022-08-19T22:27:40.964Z,21.48
2022-08-19T22:30:33.393Z,21.47
2022-08-19T22:33:22.471Z,21.69
2022-08-19T22:36:10.097Z,20.46
2022-08-19T22:38:58.675Z,20.81
2022-08-19T22:41:46.497Z,21.15
2022-08-19T22:44:34.434Z,21.46
2022-08-19T22:47:21.735Z,20.91
2022-08-19T22:50:13.900Z,21.43
2022-08-19T22:53:02.759Z,21.08
2022-08-19T22:55:49.943Z,20.82
2022-08-19T22:58:38.297Z,21.10
2022-08-19T23:01:30.237Z,21.58
2022-08-19T23:04:18.019Z,21.42
2022-08-19T23:07:06.435Z,21.42
2022-08-19T23:09:53.658Z,21.35
2022-08-19T23:12:45.080Z,21.39
2022-08-19T23:15:33.039Z,20.75
2022-08-19T23:18:23.306Z,20.98
2022-08-19T23:21:11.420Z,21.24
2022-08-19T23:23:58.743Z,20.87
2022-08-19T23:27:04.564Z,21.15
2022-08-19T23:30:10.300Z,21.35
2022-08-19T23:33:00.944Z,20.75
2022-08-19T23:35:48.747Z,21.10
2022-08-19T23:38:36.051Z,20.68
2022-08-19T23:41:23.640Z,20.66
2022-08-19T23:44:14.955Z,20.98
2022-08-19T23:47:04.804Z,20.95
2022-08-19T23:49:54.142Z,20.95
2022-08-19T23:52:50.784Z,21.28
2022-08-19T23:55:41.154Z,21.28
2022-08-19T23:58:30.294Z,21.26
